sensor_id;sensor_type;location;lat;lon;timestamp;temperature;humidity
54684;DHT22;40582;53.100;6.686;2022-12-18T00:01:58;-2.00;99.90
54684;DHT22;40582;53.100;6.686;2022-12-18T00:04:25;-2.10;99.90
54684;DHT22;40582;53.100;6.686;2022-12-18T00:06:52;-1.90;99.90
54684;DHT22;40582;53.100;6.686;2022-12-18T00:09:18;-2.10;99.90
54684;DHT22;40582;53.100;6.686;2022-12-18T00:11:44;-1.20;99.90
54684;DHT22;40582;53.100;6.686;2022-12-18T00:14:12;-1.20;99.90
54684;DHT22;40582;53.100;6.686;2022-12-18T00:16:37;-0.70;99.90
54684;DHT22;40582;53.100;6.686;2022-12-18T00:19:03;-2.10;99.90
54684;DHT22;40582;53.100;6.686;2022-12-18T00:21:31;-2.10;99.90
54684;DHT22;40582;53.100;6.686;2022-12-18T00:23:58;-2.20;99.90
54684;DHT22;40582;53.100;6.686;2022-12-18T00:26:29;-0.60;99.90
54684;DHT22;40582;53.100;6.686;2022-12-18T00:28:58;-2.20;99.90
54684;DHT22;40582;53.100;6.686;2022-12-18T00:31:25;-2.30;99.90
54684;DHT22;40582;53.100;6.686;2022-12-18T00:33:53;-0.50;99.90
54684;DHT22;40582;53.100;6.686;2022-12-18T00:36:21;-2.30;99.90
54684;DHT22;40582;53.100;6.686;2022-12-18T00:38:48;-2.30;99.90
54684;DHT22;40582;53.100;6.686;2022-12-18T00:41:15;-2.20;99.90
54684;DHT22;40582;53.100;6.686;2022-12-18T00:44:01;-2.30;99.90
54684;DHT22;40582;53.100;6.686;2022-12-18T00:46:27;-2.30;99.90
54684;DHT22;40582;53.100;6.686;2022-12-18T00:48:53;-2.30;99.90
54684;DHT22;40582;53.100;6.686;2022-12-18T00:51:18;-2.30;99.90
54684;DHT22;40582;53.100;6.686;2022-12-18T00:53:44;-2.30;99.90
54684;DHT22;40582;53.100;6.686;2022-12-18T00:56:10;-1.40;99.90
54684;DHT22;40582;53.100;6.686;2022-12-18T00:58:35;-2.30;99.90
54684;DHT22;40582;53.100;6.686;2022-12-18T01:01:01;-1.40;99.90
54684;DHT22;40582;53.100;6.686;2022-12-18T01:03:26;-2.40;99.90
54684;DHT22;40582;53.100;6.686;2022-12-18T01:05:52;-2.50;99.90
54684;DHT22;40582;53.100;6.686;2022-12-18T01:08:18;-2.50;99.90
54684;DHT22;40582;53.100;6.686;2022-12-18T01:10:43;-2.60;99.90
54684;DHT22;40582;53.100;6.686;2022-12-18T01:13:09;-2.60;99.90
54684;DHT22;40582;53.100;6.686;2022-12-18T01:15:35;-1.30;99.90
54684;DHT22;40582;53.100;6.686;2022-12-18T01:18:00;-2.60;99.90
54684;DHT22;40582;53.100;6.686;2022-12-18T01:20:26;-2.60;99.90
54684;DHT22;40582;53.100;6.686;2022-12-18T01:22:51;-2.60;99.90
54684;DHT22;40582;53.100;6.686;2022-12-18T01:25:17;-0.90;99.90
54684;DHT22;40582;53.100;6.686;2022-12-18T01:27:43;-2.70;99.90
54684;DHT22;40582;53.100;6.686;2022-12-18T01:30:09;-2.70;99.90
54684;DHT22;40582;53.100;6.686;2022-12-18T01:32:35;-2.80;99.90
54684;DHT22;40582;53.100;6.686;2022-12-18T01:35:00;-2.80;99.90
54684;DHT22;40582;53.100;6.686;2022-12-18T01:37:26;-2.80;99.90
54684;DHT22;40582;53.100;6.686;2022-12-18T01:39:52;-2.90;99.90
54684;DHT22;40582;53.100;6.686;2022-12-18T01:42:19;-2.50;99.90
54684;DHT22;40582;53.100;6.686;2022-12-18T01:47:30;-2.90;99.90
54684;DHT22;40582;53.100;6.686;2022-12-18T01:49:59;-3.00;99.90
54684;DHT22;40582;53.100;6.686;2022-12-18T01:52:28;-3.00;99.90
54684;DHT22;40582;53.100;6.686;2022-12-18T01:54:54;-3.00;99.90
54684;DHT22;40582;53.100;6.686;2022-12-18T01:57:21;-1.60;99.90
54684;DHT22;40582;53.100;6.686;2022-12-18T01:59:52;-3.10;99.90
54684;DHT22;40582;53.100;6.686;2022-12-18T02:02:19;-3.00;99.90
54684;DHT22;40582;53.100;6.686;2022-12-18T02:04:45;-3.10;99.90
54684;DHT22;40582;53.100;6.686;2022-12-18T02:07:42;-2.50;99.90
54684;DHT22;40582;53.100;6.686;2022-12-18T02:10:20;-3.10;99.90
54684;DHT22;40582;53.100;6.686;2022-12-18T02:13:14;-3.10;99.90
54684;DHT22;40582;53.100;6.686;2022-12-18T02:15:51;-3.00;99.90
54684;DHT22;40582;53.100;6.686;2022-12-18T02:18:46;-3.10;99.90
54684;DHT22;40582;53.100;6.686;2022-12-18T02:26:50;-3.10;99.90
54684;DHT22;40582;53.100;6.686;2022-12-18T02:29:26;-3.00;99.90
54684;DHT22;40582;53.100;6.686;2022-12-18T02:31:56;-3.00;99.90
54684;DHT22;40582;53.100;6.686;2022-12-18T02:34:30;-3.00;99.90
54684;DHT22;40582;53.100;6.686;2022-12-18T02:36:58;-2.70;99.90
54684;DHT22;40582;53.100;6.686;2022-12-18T02:39:26;-3.00;99.90
54684;DHT22;40582;53.100;6.686;2022-12-18T02:41:53;-2.30;99.90
54684;DHT22;40582;53.100;6.686;2022-12-18T02:44:18;-2.00;99.90
54684;DHT22;40582;53.100;6.686;2022-12-18T02:46:50;-2.30;99.90
54684;DHT22;40582;53.100;6.686;2022-12-18T02:52:16;-2.10;99.90
54684;DHT22;40582;53.100;6.686;2022-12-18T02:57:58;-3.30;99.90
54684;DHT22;40582;53.100;6.686;2022-12-18T03:00:41;-3.30;99.90
54684;DHT22;40582;53.100;6.686;2022-12-18T03:03:24;-3.40;99.90
54684;DHT22;40582;53.100;6.686;2022-12-18T03:06:01;-1.90;99.90
54684;DHT22;40582;53.100;6.686;2022-12-18T03:08:39;-3.50;99.90
54684;DHT22;40582;53.100;6.686;2022-12-18T03:11:09;-3.50;99.90
54684;DHT22;40582;53.100;6.686;2022-12-18T03:13:42;-3.60;99.90
54684;DHT22;40582;53.100;6.686;2022-12-18T03:16:12;-3.60;99.90
54684;DHT22;40582;53.100;6.686;2022-12-18T03:18:56;-3.60;99.90
54684;DHT22;40582;53.100;6.686;2022-12-18T03:21:26;-3.60;99.90
54684;DHT22;40582;53.100;6.686;2022-12-18T03:23:54;-3.70;99.90
54684;DHT22;40582;53.100;6.686;2022-12-18T03:26:24;-3.70;99.90
54684;DHT22;40582;53.100;6.686;2022-12-18T03:29:03;-3.70;99.90
54684;DHT22;40582;53.100;6.686;2022-12-18T03:31:31;-3.70;99.90
54684;DHT22;40582;53.100;6.686;2022-12-18T03:34:01;-3.70;99.90
54684;DHT22;40582;53.100;6.686;2022-12-18T03:36:28;-3.70;99.90
54684;DHT22;40582;53.100;6.686;2022-12-18T03:38:54;-3.70;99.90
54684;DHT22;40582;53.100;6.686;2022-12-18T03:50:24;-3.70;99.90
54684;DHT22;40582;53.100;6.686;2022-12-18T03:53:10;-3.70;99.90
54684;DHT22;40582;53.100;6.686;2022-12-18T03:55:38;-3.80;99.90
54684;DHT22;40582;53.100;6.686;2022-12-18T03:58:06;-3.90;99.90
54684;DHT22;40582;53.100;6.686;2022-12-18T04:00:34;-2.30;99.90
54684;DHT22;40582;53.100;6.686;2022-12-18T04:03:01;-3.80;99.90
54684;DHT22;40582;53.100;6.686;2022-12-18T04:05:28;-3.80;99.90
54684;DHT22;40582;53.100;6.686;2022-12-18T04:07:56;-3.80;99.90
54684;DHT22;40582;53.100;6.686;2022-12-18T04:10:22;-3.80;99.90
54684;DHT22;40582;53.100;6.686;2022-12-18T04:12:48;-2.30;99.90
54684;DHT22;40582;53.100;6.686;2022-12-18T04:15:14;-3.80;99.90
54684;DHT22;40582;53.100;6.686;2022-12-18T04:17:49;-3.90;99.90
54684;DHT22;40582;53.100;6.686;2022-12-18T04:20:15;-3.90;99.90
54684;DHT22;40582;53.100;6.686;2022-12-18T04:22:41;-4.00;99.90
54684;DHT22;40582;53.100;6.686;2022-12-18T04:25:07;-4.00;99.90
54684;DHT22;40582;53.100;6.686;2022-12-18T04:27:33;-4.00;99.90
54684;DHT22;40582;53.100;6.686;2022-12-18T04:29:58;-3.90;99.90
54684;DHT22;40582;53.100;6.686;2022-12-18T04:32:24;-4.00;99.90
54684;DHT22;40582;53.100;6.686;2022-12-18T04:34:50;-4.00;99.90
54684;DHT22;40582;53.100;6.686;2022-12-18T04:37:16;-4.00;99.90
54684;DHT22;40582;53.100;6.686;2022-12-18T04:39:41;-4.00;99.90
54684;DHT22;40582;53.100;6.686;2022-12-18T04:42:07;-4.00;99.90
54684;DHT22;40582;53.100;6.686;2022-12-18T04:44:32;-4.00;99.90
54684;DHT22;40582;53.100;6.686;2022-12-18T04:46:58;-4.00;99.90
54684;DHT22;40582;53.100;6.686;2022-12-18T04:49:24;-4.00;99.90
54684;DHT22;40582;53.100;6.686;2022-12-18T04:51:50;-4.00;99.90
54684;DHT22;40582;53.100;6.686;2022-12-18T04:54:15;-4.00;99.90
54684;DHT22;40582;53.100;6.686;2022-12-18T04:56:41;-4.00;99.90
54684;DHT22;40582;53.100;6.686;2022-12-18T04:59:07;-4.00;99.90
54684;DHT22;40582;53.100;6.686;2022-12-18T05:01:32;-4.00;99.90
54684;DHT22;40582;53.100;6.686;2022-12-18T05:04:00;-4.00;99.90
54684;DHT22;40582;53.100;6.686;2022-12-18T05:06:25;-2.50;99.90
54684;DHT22;40582;53.100;6.686;2022-12-18T05:08:51;-2.40;99.90
54684;DHT22;40582;53.100;6.686;2022-12-18T05:11:17;-4.10;99.90
54684;DHT22;40582;53.100;6.686;2022-12-18T05:13:44;-4.10;99.90
54684;DHT22;40582;53.100;6.686;2022-12-18T05:16:10;-4.20;99.90
54684;DHT22;40582;53.100;6.686;2022-12-18T05:18:36;-4.20;99.90
54684;DHT22;40582;53.100;6.686;2022-12-18T05:21:02;-4.30;99.90
54684;DHT22;40582;53.100;6.686;2022-12-18T05:23:28;-4.30;99.90
54684;DHT22;40582;53.100;6.686;2022-12-18T05:25:59;-4.30;99.90
54684;DHT22;40582;53.100;6.686;2022-12-18T05:28:28;-4.30;99.90
54684;DHT22;40582;53.100;6.686;2022-12-18T05:30:56;-4.30;99.90
54684;DHT22;40582;53.100;6.686;2022-12-18T05:33:23;-4.30;99.90
54684;DHT22;40582;53.100;6.686;2022-12-18T05:35:57;-4.30;99.90
54684;DHT22;40582;53.100;6.686;2022-12-18T05:38:25;-4.30;99.90
54684;DHT22;40582;53.100;6.686;2022-12-18T05:40:52;-4.30;99.90
54684;DHT22;40582;53.100;6.686;2022-12-18T05:43:19;-4.20;99.90
54684;DHT22;40582;53.100;6.686;2022-12-18T05:45:47;-4.20;99.90
54684;DHT22;40582;53.100;6.686;2022-12-18T05:48:13;-4.20;99.90
54684;DHT22;40582;53.100;6.686;2022-12-18T05:50:41;-4.30;99.90
54684;DHT22;40582;53.100;6.686;2022-12-18T05:53:07;-4.30;99.90
54684;DHT22;40582;53.100;6.686;2022-12-18T05:55:38;-4.30;99.90
54684;DHT22;40582;53.100;6.686;2022-12-18T05:58:04;-4.20;99.90
54684;DHT22;40582;53.100;6.686;2022-12-18T06:00:32;-4.20;99.90
54684;DHT22;40582;53.100;6.686;2022-12-18T06:02:58;-3.10;99.90
54684;DHT22;40582;53.100;6.686;2022-12-18T06:05:24;-4.20;99.90
54684;DHT22;40582;53.100;6.686;2022-12-18T06:07:50;-4.20;99.90
54684;DHT22;40582;53.100;6.686;2022-12-18T06:10:16;-4.20;99.90
54684;DHT22;40582;53.100;6.686;2022-12-18T06:12:42;-3.80;99.90
54684;DHT22;40582;53.100;6.686;2022-12-18T06:15:08;-4.30;99.90
54684;DHT22;40582;53.100;6.686;2022-12-18T06:17:35;-4.30;99.90
54684;DHT22;40582;53.100;6.686;2022-12-18T06:20:01;-4.30;99.90
54684;DHT22;40582;53.100;6.686;2022-12-18T06:22:27;-4.30;99.90
54684;DHT22;40582;53.100;6.686;2022-12-18T06:24:53;-4.30;99.90
54684;DHT22;40582;53.100;6.686;2022-12-18T06:27:19;-4.30;99.90
54684;DHT22;40582;53.100;6.686;2022-12-18T06:29:44;-4.30;99.90
54684;DHT22;40582;53.100;6.686;2022-12-18T06:32:11;-4.30;99.90
54684;DHT22;40582;53.100;6.686;2022-12-18T06:34:39;-4.40;99.90
54684;DHT22;40582;53.100;6.686;2022-12-18T06:37:05;-4.40;99.90
54684;DHT22;40582;53.100;6.686;2022-12-18T06:39:30;-4.40;99.90
54684;DHT22;40582;53.100;6.686;2022-12-18T06:41:56;-4.40;99.90
54684;DHT22;40582;53.100;6.686;2022-12-18T06:44:22;-4.40;99.90
54684;DHT22;40582;53.100;6.686;2022-12-18T06:46:47;-4.40;99.90
54684;DHT22;40582;53.100;6.686;2022-12-18T06:49:13;-4.40;99.90
54684;DHT22;40582;53.100;6.686;2022-12-18T06:51:38;-4.50;99.90
54684;DHT22;40582;53.100;6.686;2022-12-18T06:54:04;-4.50;99.90
54684;DHT22;40582;53.100;6.686;2022-12-18T06:56:30;-4.50;99.90
54684;DHT22;40582;53.100;6.686;2022-12-18T06:58:56;-4.50;99.90
54684;DHT22;40582;53.100;6.686;2022-12-18T07:01:22;-4.60;99.90
54684;DHT22;40582;53.100;6.686;2022-12-18T07:03:52;-4.70;99.90
54684;DHT22;40582;53.100;6.686;2022-12-18T07:06:21;-4.80;99.90
54684;DHT22;40582;53.100;6.686;2022-12-18T07:08:48;-4.90;99.90
54684;DHT22;40582;53.100;6.686;2022-12-18T07:11:14;-5.10;99.90
54684;DHT22;40582;53.100;6.686;2022-12-18T07:13:40;-4.60;99.90
54684;DHT22;40582;53.100;6.686;2022-12-18T07:16:10;-5.30;99.90
54684;DHT22;40582;53.100;6.686;2022-12-18T07:18:36;-5.40;99.90
54684;DHT22;40582;53.100;6.686;2022-12-18T07:21:06;-5.50;99.90
54684;DHT22;40582;53.100;6.686;2022-12-18T07:23:33;-5.40;99.90
54684;DHT22;40582;53.100;6.686;2022-12-18T07:26:04;-5.40;99.90
54684;DHT22;40582;53.100;6.686;2022-12-18T07:28:30;-5.40;99.90
54684;DHT22;40582;53.100;6.686;2022-12-18T07:30:56;-5.50;99.90
54684;DHT22;40582;53.100;6.686;2022-12-18T07:33:22;-5.50;99.90
54684;DHT22;40582;53.100;6.686;2022-12-18T07:35:47;-5.40;99.90
54684;DHT22;40582;53.100;6.686;2022-12-18T07:38:13;-5.40;99.90
54684;DHT22;40582;53.100;6.686;2022-12-18T07:40:39;-5.40;99.90
54684;DHT22;40582;53.100;6.686;2022-12-18T07:43:04;-4.10;99.90
54684;DHT22;40582;53.100;6.686;2022-12-18T07:45:30;-5.30;99.90
54684;DHT22;40582;53.100;6.686;2022-12-18T07:47:56;-5.30;99.90
54684;DHT22;40582;53.100;6.686;2022-12-18T07:50:21;-5.40;99.90
54684;DHT22;40582;53.100;6.686;2022-12-18T07:52:47;-5.40;99.90
54684;DHT22;40582;53.100;6.686;2022-12-18T07:55:13;-5.00;99.90
54684;DHT22;40582;53.100;6.686;2022-12-18T07:57:38;-5.30;99.90
54684;DHT22;40582;53.100;6.686;2022-12-18T08:00:05;-5.30;99.90
54684;DHT22;40582;53.100;6.686;2022-12-18T08:02:31;-5.30;99.90
54684;DHT22;40582;53.100;6.686;2022-12-18T08:04:57;-5.30;99.90
54684;DHT22;40582;53.100;6.686;2022-12-18T08:07:23;-5.20;99.90
54684;DHT22;40582;53.100;6.686;2022-12-18T08:09:49;-5.20;99.90
54684;DHT22;40582;53.100;6.686;2022-12-18T08:12:14;-5.10;99.90
54684;DHT22;40582;53.100;6.686;2022-12-18T08:14:40;-5.10;99.90
54684;DHT22;40582;53.100;6.686;2022-12-18T08:17:06;-5.20;99.90
54684;DHT22;40582;53.100;6.686;2022-12-18T08:19:31;-5.20;99.90
54684;DHT22;40582;53.100;6.686;2022-12-18T08:21:58;-5.10;99.90
54684;DHT22;40582;53.100;6.686;2022-12-18T08:24:24;-5.10;99.90
54684;DHT22;40582;53.100;6.686;2022-12-18T08:26:49;-5.10;99.90
54684;DHT22;40582;53.100;6.686;2022-12-18T08:29:16;-5.10;99.90
54684;DHT22;40582;53.100;6.686;2022-12-18T08:31:41;-5.00;99.90
54684;DHT22;40582;53.100;6.686;2022-12-18T08:34:08;-5.00;99.90
54684;DHT22;40582;53.100;6.686;2022-12-18T08:36:33;-3.60;99.90
54684;DHT22;40582;53.100;6.686;2022-12-18T08:38:59;-5.00;99.90
54684;DHT22;40582;53.100;6.686;2022-12-18T08:41:25;-5.00;99.90
54684;DHT22;40582;53.100;6.686;2022-12-18T08:43:51;-4.90;99.90
54684;DHT22;40582;53.100;6.686;2022-12-18T08:46:38;-4.90;99.90
54684;DHT22;40582;53.100;6.686;2022-12-18T08:49:05;-4.80;99.90
54684;DHT22;40582;53.100;6.686;2022-12-18T08:51:31;-4.80;99.90
54684;DHT22;40582;53.100;6.686;2022-12-18T08:53:57;-4.80;99.90
54684;DHT22;40582;53.100;6.686;2022-12-18T08:56:23;-4.80;99.90
54684;DHT22;40582;53.100;6.686;2022-12-18T08:58:54;-4.70;99.90
54684;DHT22;40582;53.100;6.686;2022-12-18T09:01:20;-4.70;99.90
54684;DHT22;40582;53.100;6.686;2022-12-18T09:03:46;-4.60;99.90
54684;DHT22;40582;53.100;6.686;2022-12-18T09:06:14;-3.70;99.90
54684;DHT22;40582;53.100;6.686;2022-12-18T09:08:41;-4.50;99.90
54684;DHT22;40582;53.100;6.686;2022-12-18T09:11:25;-4.00;99.90
54684;DHT22;40582;53.100;6.686;2022-12-18T09:13:52;-4.40;99.90
54684;DHT22;40582;53.100;6.686;2022-12-18T09:16:18;-4.30;99.90
54684;DHT22;40582;53.100;6.686;2022-12-18T09:18:45;-4.30;99.90
54684;DHT22;40582;53.100;6.686;2022-12-18T09:21:19;-4.30;99.90
54684;DHT22;40582;53.100;6.686;2022-12-18T09:23:55;-4.20;99.90
54684;DHT22;40582;53.100;6.686;2022-12-18T09:26:22;-4.20;99.90
54684;DHT22;40582;53.100;6.686;2022-12-18T09:28:48;-4.10;99.90
54684;DHT22;40582;53.100;6.686;2022-12-18T09:31:13;-4.10;99.90
54684;DHT22;40582;53.100;6.686;2022-12-18T09:33:39;-4.00;99.90
54684;DHT22;40582;53.100;6.686;2022-12-18T09:36:07;-4.00;99.90
54684;DHT22;40582;53.100;6.686;2022-12-18T09:38:34;-3.90;99.90
54684;DHT22;40582;53.100;6.686;2022-12-18T09:41:23;-3.50;99.90
54684;DHT22;40582;53.100;6.686;2022-12-18T09:43:58;-3.80;99.90
54684;DHT22;40582;53.100;6.686;2022-12-18T09:46:47;-3.60;99.90
54684;DHT22;40582;53.100;6.686;2022-12-18T09:49:18;-2.80;99.90
54684;DHT22;40582;53.100;6.686;2022-12-18T09:51:52;-3.30;99.90
54684;DHT22;40582;53.100;6.686;2022-12-18T09:54:26;-3.20;99.90
54684;DHT22;40582;53.100;6.686;2022-12-18T09:56:54;-3.10;99.90
54684;DHT22;40582;53.100;6.686;2022-12-18T09:59:38;-3.10;99.90
54684;DHT22;40582;53.100;6.686;2022-12-18T10:04:40;-3.10;99.90
54684;DHT22;40582;53.100;6.686;2022-12-18T10:07:19;-3.10;99.90
54684;DHT22;40582;53.100;6.686;2022-12-18T10:09:59;-3.10;99.90
54684;DHT22;40582;53.100;6.686;2022-12-18T10:15:39;-3.10;99.90
54684;DHT22;40582;53.100;6.686;2022-12-18T10:21:00;-3.20;99.90
54684;DHT22;40582;53.100;6.686;2022-12-18T10:26:10;-2.10;99.90
54684;DHT22;40582;53.100;6.686;2022-12-18T10:28:37;-3.00;99.90
54684;DHT22;40582;53.100;6.686;2022-12-18T10:31:22;-2.40;99.90
54684;DHT22;40582;53.100;6.686;2022-12-18T10:33:48;-2.80;99.90
54684;DHT22;40582;53.100;6.686;2022-12-18T10:36:14;-2.00;99.90
54684;DHT22;40582;53.100;6.686;2022-12-18T10:38:40;-2.90;99.90
54684;DHT22;40582;53.100;6.686;2022-12-18T10:41:22;-1.90;99.90
54684;DHT22;40582;53.100;6.686;2022-12-18T10:44:11;-3.00;99.90
54684;DHT22;40582;53.100;6.686;2022-12-18T10:46:37;-1.50;99.90
54684;DHT22;40582;53.100;6.686;2022-12-18T10:49:04;-3.00;99.90
54684;DHT22;40582;53.100;6.686;2022-12-18T10:51:35;-3.10;99.90
54684;DHT22;40582;53.100;6.686;2022-12-18T10:54:04;-3.00;99.90
54684;DHT22;40582;53.100;6.686;2022-12-18T10:56:33;-3.00;99.90
54684;DHT22;40582;53.100;6.686;2022-12-18T10:59:11;-3.00;99.90
54684;DHT22;40582;53.100;6.686;2022-12-18T11:01:47;-3.00;99.90
54684;DHT22;40582;53.100;6.686;2022-12-18T11:04:21;-3.00;99.90
54684;DHT22;40582;53.100;6.686;2022-12-18T11:07:05;-2.90;99.90
54684;DHT22;40582;53.100;6.686;2022-12-18T11:09:33;-2.90;99.90
54684;DHT22;40582;53.100;6.686;2022-12-18T11:12:02;-2.80;99.90
54684;DHT22;40582;53.100;6.686;2022-12-18T11:14:48;-2.70;99.90
54684;DHT22;40582;53.100;6.686;2022-12-18T11:19:55;-2.50;99.90
54684;DHT22;40582;53.100;6.686;2022-12-18T11:22:24;-1.30;99.90
54684;DHT22;40582;53.100;6.686;2022-12-18T11:25:03;-2.40;99.90
54684;DHT22;40582;53.100;6.686;2022-12-18T11:27:31;-2.30;99.90
54684;DHT22;40582;53.100;6.686;2022-12-18T11:33:09;-2.20;99.90
54684;DHT22;40582;53.100;6.686;2022-12-18T11:35:47;-2.10;99.90
54684;DHT22;40582;53.100;6.686;2022-12-18T11:40:42;-2.00;99.90
54684;DHT22;40582;53.100;6.686;2022-12-18T11:43:28;-2.00;99.90
54684;DHT22;40582;53.100;6.686;2022-12-18T11:46:05;-1.90;99.90
54684;DHT22;40582;53.100;6.686;2022-12-18T11:48:58;-1.90;99.90
54684;DHT22;40582;53.100;6.686;2022-12-18T11:51:30;-1.90;99.90
54684;DHT22;40582;53.100;6.686;2022-12-18T11:53:57;-1.90;99.90
54684;DHT22;40582;53.100;6.686;2022-12-18T11:56:49;-1.90;99.90
54684;DHT22;40582;53.100;6.686;2022-12-18T12:01:47;-1.90;99.90
54684;DHT22;40582;53.100;6.686;2022-12-18T12:12:37;-1.80;99.90
54684;DHT22;40582;53.100;6.686;2022-12-18T12:18:08;-1.80;99.90
54684;DHT22;40582;53.100;6.686;2022-12-18T12:26:12;-1.70;99.90
54684;DHT22;40582;53.100;6.686;2022-12-18T12:34:38;-1.60;99.90
54684;DHT22;40582;53.100;6.686;2022-12-18T12:40:05;-1.60;99.90
54684;DHT22;40582;53.100;6.686;2022-12-18T12:42:37;-1.60;99.90
54684;DHT22;40582;53.100;6.686;2022-12-18T12:45:28;-1.50;99.90
54684;DHT22;40582;53.100;6.686;2022-12-18T12:47:57;-1.50;99.90
54684;DHT22;40582;53.100;6.686;2022-12-18T12:50:24;-0.30;99.90
54684;DHT22;40582;53.100;6.686;2022-12-18T12:52:55;-1.40;99.90
54684;DHT22;40582;53.100;6.686;2022-12-18T12:55:23;-0.40;99.90
54684;DHT22;40582;53.100;6.686;2022-12-18T12:58:10;-1.40;99.90
54684;DHT22;40582;53.100;6.686;2022-12-18T13:01:24;-1.40;99.90
54684;DHT22;40582;53.100;6.686;2022-12-18T13:03:41;-1.30;99.90
54684;DHT22;40582;53.100;6.686;2022-12-18T13:09:00;-1.30;99.90
54684;DHT22;40582;53.100;6.686;2022-12-18T13:11:35;-0.50;99.90
54684;DHT22;40582;53.100;6.686;2022-12-18T13:14:28;-1.20;99.90
54684;DHT22;40582;53.100;6.686;2022-12-18T13:17:30;-1.10;99.90
54684;DHT22;40582;53.100;6.686;2022-12-18T13:20:10;-1.20;99.90
54684;DHT22;40582;53.100;6.686;2022-12-18T13:22:48;-1.20;99.90
54684;DHT22;40582;53.100;6.686;2022-12-18T13:25:45;-1.10;99.90
54684;DHT22;40582;53.100;6.686;2022-12-18T13:28:16;-1.20;99.90
54684;DHT22;40582;53.100;6.686;2022-12-18T13:30:56;-0.50;99.90
54684;DHT22;40582;53.100;6.686;2022-12-18T13:33:37;-0.20;99.90
54684;DHT22;40582;53.100;6.686;2022-12-18T13:36:25;-1.20;99.90
54684;DHT22;40582;53.100;6.686;2022-12-18T13:39:32;-1.20;99.90
54684;DHT22;40582;53.100;6.686;2022-12-18T13:44:40;-1.10;99.90
54684;DHT22;40582;53.100;6.686;2022-12-18T13:49:51;-1.20;99.90
54684;DHT22;40582;53.100;6.686;2022-12-18T13:52:24;-1.10;99.90
54684;DHT22;40582;53.100;6.686;2022-12-18T13:54:57;-1.30;99.90
54684;DHT22;40582;53.100;6.686;2022-12-18T13:57:29;-1.30;99.90
54684;DHT22;40582;53.100;6.686;2022-12-18T13:59:56;-1.30;99.90
54684;DHT22;40582;53.100;6.686;2022-12-18T14:02:24;-1.20;99.90
54684;DHT22;40582;53.100;6.686;2022-12-18T14:04:51;-1.20;99.90
54684;DHT22;40582;53.100;6.686;2022-12-18T14:07:28;-1.20;99.90
54684;DHT22;40582;53.100;6.686;2022-12-18T14:09:59;0.40;99.90
54684;DHT22;40582;53.100;6.686;2022-12-18T14:12:31;-0.20;99.90
54684;DHT22;40582;53.100;6.686;2022-12-18T14:17:47;-1.40;99.90
54684;DHT22;40582;53.100;6.686;2022-12-18T14:20:14;-1.40;99.90
54684;DHT22;40582;53.100;6.686;2022-12-18T14:22:46;-1.40;99.90
54684;DHT22;40582;53.100;6.686;2022-12-18T14:27:42;-1.50;99.90
54684;DHT22;40582;53.100;6.686;2022-12-18T14:30:32;-0.70;99.90
54684;DHT22;40582;53.100;6.686;2022-12-18T14:33:11;-1.60;99.90
54684;DHT22;40582;53.100;6.686;2022-12-18T14:36:00;-1.60;99.90
54684;DHT22;40582;53.100;6.686;2022-12-18T14:38:35;-1.60;99.90
54684;DHT22;40582;53.100;6.686;2022-12-18T14:41:12;-1.70;99.90
54684;DHT22;40582;53.100;6.686;2022-12-18T14:43:41;-1.70;99.90
54684;DHT22;40582;53.100;6.686;2022-12-18T14:48:51;-1.80;99.90
54684;DHT22;40582;53.100;6.686;2022-12-18T14:51:24;-1.80;99.90
54684;DHT22;40582;53.100;6.686;2022-12-18T14:54:05;-1.20;99.90
54684;DHT22;40582;53.100;6.686;2022-12-18T14:56:53;-1.50;99.90
54684;DHT22;40582;53.100;6.686;2022-12-18T14:59:24;-1.80;99.90
54684;DHT22;40582;53.100;6.686;2022-12-18T15:02:23;-0.70;99.90
54684;DHT22;40582;53.100;6.686;2022-12-18T15:05:24;-1.80;99.90
54684;DHT22;40582;53.100;6.686;2022-12-18T15:07:50;-1.80;99.90
54684;DHT22;40582;53.100;6.686;2022-12-18T15:18:23;-1.30;99.90
54684;DHT22;40582;53.100;6.686;2022-12-18T15:20:54;-1.90;99.90
54684;DHT22;40582;53.100;6.686;2022-12-18T15:23:46;-1.80;99.90
54684;DHT22;40582;53.100;6.686;2022-12-18T15:26:14;-2.00;99.90
54684;DHT22;40582;53.100;6.686;2022-12-18T15:33:40;-2.00;99.90
54684;DHT22;40582;53.100;6.686;2022-12-18T15:36:11;-2.00;99.90
54684;DHT22;40582;53.100;6.686;2022-12-18T15:38:37;-2.00;99.90
54684;DHT22;40582;53.100;6.686;2022-12-18T15:41:03;-1.70;99.90
54684;DHT22;40582;53.100;6.686;2022-12-18T15:43:29;-2.00;99.90
54684;DHT22;40582;53.100;6.686;2022-12-18T15:46:09;-2.00;99.90
54684;DHT22;40582;53.100;6.686;2022-12-18T15:48:41;-2.00;99.90
54684;DHT22;40582;53.100;6.686;2022-12-18T15:51:18;-2.00;99.90
54684;DHT22;40582;53.100;6.686;2022-12-18T15:53:44;-2.00;99.90
54684;DHT22;40582;53.100;6.686;2022-12-18T15:56:12;-2.10;99.90
54684;DHT22;40582;53.100;6.686;2022-12-18T15:58:56;-2.00;99.90
54684;DHT22;40582;53.100;6.686;2022-12-18T16:01:27;-2.00;99.90
54684;DHT22;40582;53.100;6.686;2022-12-18T16:03:53;-0.60;99.90
54684;DHT22;40582;53.100;6.686;2022-12-18T16:06:20;-2.10;99.90
54684;DHT22;40582;53.100;6.686;2022-12-18T16:08:45;-2.00;99.90
54684;DHT22;40582;53.100;6.686;2022-12-18T16:11:31;-2.00;99.90
54684;DHT22;40582;53.100;6.686;2022-12-18T16:14:12;-2.00;99.90
54684;DHT22;40582;53.100;6.686;2022-12-18T16:16:39;-2.00;99.90
54684;DHT22;40582;53.100;6.686;2022-12-18T16:19:05;-2.00;99.90
54684;DHT22;40582;53.100;6.686;2022-12-18T16:21:30;-0.30;99.90
54684;DHT22;40582;53.100;6.686;2022-12-18T16:23:56;-0.40;99.90
54684;DHT22;40582;53.100;6.686;2022-12-18T16:26:21;-0.50;99.90
54684;DHT22;40582;53.100;6.686;2022-12-18T16:28:47;-1.90;99.90
54684;DHT22;40582;53.100;6.686;2022-12-18T16:31:13;-1.90;99.90
54684;DHT22;40582;53.100;6.686;2022-12-18T16:33:38;-1.80;99.90
54684;DHT22;40582;53.100;6.686;2022-12-18T16:36:04;-0.40;99.90
54684;DHT22;40582;53.100;6.686;2022-12-18T16:38:30;-1.80;99.90
54684;DHT22;40582;53.100;6.686;2022-12-18T16:40:55;-1.70;99.90
54684;DHT22;40582;53.100;6.686;2022-12-18T16:43:39;-1.80;99.90
54684;DHT22;40582;53.100;6.686;2022-12-18T16:46:05;-1.80;99.90
54684;DHT22;40582;53.100;6.686;2022-12-18T16:48:31;-1.80;99.90
54684;DHT22;40582;53.100;6.686;2022-12-18T16:51:01;-1.70;99.90
54684;DHT22;40582;53.100;6.686;2022-12-18T16:53:28;-1.70;99.90
54684;DHT22;40582;53.100;6.686;2022-12-18T16:55:54;-1.70;99.90
54684;DHT22;40582;53.100;6.686;2022-12-18T16:58:20;-0.90;99.90
54684;DHT22;40582;53.100;6.686;2022-12-18T17:00:46;-1.70;99.90
54684;DHT22;40582;53.100;6.686;2022-12-18T17:03:11;-0.50;99.90
54684;DHT22;40582;53.100;6.686;2022-12-18T17:05:37;-0.70;99.90
54684;DHT22;40582;53.100;6.686;2022-12-18T17:08:03;-0.20;99.90
54684;DHT22;40582;53.100;6.686;2022-12-18T17:10:28;-1.50;99.90
54684;DHT22;40582;53.100;6.686;2022-12-18T17:12:54;-1.50;99.90
54684;DHT22;40582;53.100;6.686;2022-12-18T17:15:20;-1.50;99.90
54684;DHT22;40582;53.100;6.686;2022-12-18T17:17:46;-1.50;99.90
54684;DHT22;40582;53.100;6.686;2022-12-18T17:20:12;-1.40;99.90
54684;DHT22;40582;53.100;6.686;2022-12-18T17:22:37;-1.10;99.90
54684;DHT22;40582;53.100;6.686;2022-12-18T17:25:03;-1.40;99.90
54684;DHT22;40582;53.100;6.686;2022-12-18T17:27:29;-1.40;99.90
54684;DHT22;40582;53.100;6.686;2022-12-18T17:29:55;-1.40;99.90